createdAt,value
2023-01-07T00:02:20.117Z,12.03
2023-01-07T00:07:21.655Z,11.95
2023-01-07T00:12:23.190Z,11.95
2023-01-07T00:17:24.771Z,12.04
2023-01-07T00:22:26.307Z,12.12
2023-01-07T00:27:27.831Z,12.16
2023-01-07T00:32:29.532Z,12.20
2023-01-07T00:37:31.142Z,12.18
2023-01-07T00:42:32.729Z,12.19
2023-01-07T00:47:34.283Z,12.10
2023-01-07T00:52:35.781Z,12.10
2023-01-07T00:57:37.541Z,12.15
2023-01-07T01:02:40.341Z,12.09
2023-01-07T01:07:43.451Z,12.01
2023-01-07T01:12:45.730Z,11.85
2023-01-07T01:17:47.346Z,11.70
2023-01-07T01:22:48.965Z,11.51
2023-01-07T01:27:50.548Z,11.38
2023-01-07T01:32:52.069Z,11.31
2023-01-07T01:37:54.599Z,11.27
2023-01-07T01:42:56.427Z,11.33
2023-01-07T01:48:04.721Z,11.40
2023-01-07T01:53:16.281Z,11.38
2023-01-07T01:58:33.177Z,11.36
2023-01-07T02:03:37.801Z,11.23
2023-01-07T02:08:39.485Z,11.23
2023-01-07T02:13:47.258Z,11.38
2023-01-07T02:19:11.072Z,11.42
2023-01-07T02:24:24.728Z,11.46
2023-01-07T02:29:26.217Z,11.27
2023-01-07T02:34:43.222Z,10.99
2023-01-07T02:39:57.506Z,10.77
2023-01-07T02:45:11.373Z,10.57
2023-01-07T02:50:13.713Z,10.51
2023-01-07T02:55:21.467Z,10.41
2023-01-07T03:00:33.461Z,10.57
2023-01-07T03:06:06.587Z,10.51
2023-01-07T03:11:10.028Z,10.39
2023-01-07T03:16:27.348Z,10.29
2023-01-07T03:21:32.994Z,10.12
2023-01-07T03:26:43.052Z,10.04
2023-01-07T03:31:58.990Z,10.06
2023-01-07T03:37:10.776Z,10.06
2023-01-07T03:42:13.871Z,9.96
2023-01-07T03:47:15.580Z,9.97
2023-01-07T03:52:17.259Z,10.02
2023-01-07T03:57:18.823Z,10.05
2023-01-07T04:02:20.562Z,9.81
2023-01-07T04:07:22.904Z,9.85
2023-01-07T04:12:24.751Z,10.15
2023-01-07T04:17:26.734Z,10.36
2023-01-07T04:22:28.384Z,10.55
2023-01-07T04:27:30.115Z,10.57
2023-01-07T04:32:32.004Z,10.74
2023-01-07T04:37:33.689Z,10.73
2023-01-07T04:42:35.974Z,10.80
2023-01-07T04:47:38.462Z,11.05
2023-01-07T04:52:41.233Z,11.17
2023-01-07T04:57:43.686Z,11.07
2023-01-07T05:02:47.138Z,10.90
2023-01-07T05:07:48.847Z,10.95
2023-01-07T05:12:52.375Z,10.93
2023-01-07T05:17:54.224Z,10.98
2023-01-07T05:22:58.473Z,11.09
2023-01-07T05:28:00.395Z,11.11
2023-01-07T05:33:04.549Z,11.15
2023-01-07T05:38:06.252Z,11.32
2023-01-07T05:43:08.403Z,11.37
2023-01-07T05:48:10.263Z,11.39
2023-01-07T05:53:11.768Z,11.34
2023-01-07T05:58:13.451Z,11.35
2023-01-07T06:03:15.021Z,11.43
2023-01-07T06:08:16.841Z,11.56
2023-01-07T06:13:18.415Z,11.50
2023-01-07T06:18:20.144Z,11.53
2023-01-07T06:23:21.845Z,11.59
2023-01-07T06:28:23.508Z,11.51
2023-01-07T06:33:25.098Z,11.47
2023-01-07T06:38:26.610Z,11.41
2023-01-07T06:43:28.643Z,11.30
2023-01-07T06:48:30.324Z,11.29
2023-01-07T06:53:32.094Z,11.23
2023-01-07T06:58:33.615Z,11.28
2023-01-07T07:03:35.223Z,11.20
2023-01-07T07:08:36.893Z,11.23
2023-01-07T07:13:38.382Z,11.20
2023-01-07T07:18:41.270Z,11.25
2023-01-07T07:23:42.928Z,11.25
2023-01-07T07:28:44.720Z,11.28
2023-01-07T07:33:46.315Z,11.20
2023-01-07T07:38:47.853Z,11.18
2023-01-07T07:43:49.633Z,11.14
2023-01-07T07:48:51.544Z,11.18
2023-01-07T07:53:53.201Z,11.18
2023-01-07T07:58:54.771Z,11.25
2023-01-07T08:03:56.434Z,11.42
2023-01-07T08:08:58.015Z,11.38
2023-01-07T08:14:00.134Z,11.38
2023-01-07T08:19:01.778Z,11.38
2023-01-07T08:24:03.749Z,11.37
2023-01-07T08:29:05.339Z,11.36
2023-01-07T08:34:06.917Z,11.36
2023-01-07T08:39:08.431Z,11.44
2023-01-07T08:44:10.078Z,11.60
2023-01-07T08:49:11.743Z,11.45
2023-01-07T08:54:13.398Z,11.57
2023-01-07T08:59:14.993Z,11.57
2023-01-07T09:04:16.842Z,11.63
2023-01-07T09:09:18.471Z,11.76
2023-01-07T09:14:20.141Z,11.86
2023-01-07T09:19:21.981Z,11.91
2023-01-07T09:24:23.482Z,11.97
2023-01-07T09:29:25.120Z,12.01
2023-01-07T09:34:26.628Z,12.13
2023-01-07T09:39:28.196Z,12.46
2023-01-07T09:44:54.327Z,13.06
2023-01-07T09:50:03.213Z,12.90
2023-01-07T09:55:17.605Z,13.09
2023-01-07T10:00:22.616Z,12.68
2023-01-07T10:05:56.408Z,12.57
2023-01-07T10:11:11.212Z,12.83
2023-01-07T10:16:51.114Z,12.82
2023-01-07T10:21:58.771Z,12.98
2023-01-07T10:27:22.880Z,12.45
2023-01-07T10:32:30.554Z,12.62
2023-01-07T10:37:35.183Z,12.78
2023-01-07T10:42:39.945Z,12.63
2023-01-07T10:48:03.875Z,12.43
2023-01-07T10:53:29.090Z,12.34
2023-01-07T10:58:39.327Z,12.25
2023-01-07T11:03:41.155Z,12.22
2023-01-07T11:08:43.196Z,12.12
2023-01-07T11:14:10.852Z,12.22
2023-01-07T11:19:12.534Z,12.34
2023-01-07T11:24:36.057Z,12.38
2023-01-07T11:29:43.625Z,12.30
2023-01-07T11:34:48.246Z,12.32
2023-01-07T11:39:59.360Z,12.50
2023-01-07T11:45:18.359Z,12.56
2023-01-07T11:50:30.073Z,12.48
2023-01-07T11:55:31.652Z,12.52
2023-01-07T12:00:33.313Z,12.72
2023-01-07T12:05:35.198Z,12.72
2023-01-07T12:10:38.818Z,13.05
2023-01-07T12:15:51.913Z,13.45
2023-01-07T12:21:14.546Z,13.32
2023-01-07T12:26:22.751Z,13.49
2023-01-07T12:31:40.752Z,13.42
2023-01-07T12:37:10.154Z,13.47
2023-01-07T12:42:25.997Z,13.44
2023-01-07T12:47:37.166Z,13.53
2023-01-07T12:52:49.380Z,13.36
2023-01-07T12:58:26.266Z,13.31
2023-01-07T13:03:39.249Z,13.21
2023-01-07T13:08:51.424Z,13.31
2023-01-07T13:13:54.514Z,13.37
2023-01-07T13:18:56.068Z,13.36
2023-01-07T13:24:55.465Z,13.39
2023-01-07T13:30:11.143Z,13.34
2023-01-07T13:35:37.698Z,13.29
2023-01-07T13:40:45.288Z,13.30
2023-01-07T13:46:01.997Z,13.31
2023-01-07T13:51:12.992Z,13.50
2023-01-07T13:56:17.442Z,13.56
2023-01-07T14:01:28.070Z,13.75
2023-01-07T14:06:29.631Z,13.62
2023-01-07T14:11:31.124Z,13.61
2023-01-07T14:16:50.235Z,13.58
2023-01-07T14:22:03.846Z,13.64
2023-01-07T14:27:24.154Z,13.72
2023-01-07T14:32:25.637Z,13.24
2023-01-07T14:37:39.601Z,13.55
2023-01-07T14:42:43.855Z,13.29
2023-01-07T14:47:53.457Z,12.95
2023-01-07T14:53:26.908Z,12.69
2023-01-07T14:58:41.800Z,12.48
2023-01-07T15:04:00.770Z,12.28
2023-01-07T15:09:11.880Z,11.84
2023-01-07T15:14:26.466Z,11.75
2023-01-07T15:19:27.970Z,11.72
2023-01-07T15:24:48.055Z,11.43
2023-01-07T15:29:49.475Z,11.08
2023-01-07T15:34:51.243Z,11.15
2023-01-07T15:39:56.511Z,10.77
2023-01-07T15:44:59.959Z,10.59
2023-01-07T15:50:24.877Z,10.55
2023-01-07T15:55:30.367Z,10.26
2023-01-07T16:00:32.176Z,10.23
2023-01-07T16:05:38.101Z,10.24
2023-01-07T16:10:39.611Z,10.07
2023-01-07T16:15:41.428Z,10.11
2023-01-07T16:20:54.481Z,10.23
2023-01-07T16:26:06.698Z,10.33
2023-01-07T16:31:14.623Z,10.38
2023-01-07T16:36:40.430Z,10.36
2023-01-07T16:41:42.516Z,10.48
2023-01-07T16:47:14.108Z,10.70
2023-01-07T16:52:17.841Z,10.79
2023-01-07T16:57:48.740Z,10.80
2023-01-07T17:02:59.273Z,10.73
2023-01-07T17:08:06.986Z,10.57
2023-01-07T17:13:14.241Z,10.67
2023-01-07T17:18:15.703Z,10.69
2023-01-07T17:23:26.236Z,10.70
2023-01-07T17:28:33.602Z,10.69
2023-01-07T17:33:36.599Z,10.59
2023-01-07T17:38:38.172Z,10.66
2023-01-07T17:43:39.656Z,10.56
2023-01-07T17:48:41.268Z,10.66
2023-01-07T17:53:45.564Z,10.57
2023-01-07T17:58:47.387Z,10.47
2023-01-07T18:03:49.278Z,10.66
2023-01-07T18:08:52.186Z,10.67
2023-01-07T18:13:53.651Z,10.80
2023-01-07T18:18:55.835Z,11.03
2023-01-07T18:23:57.395Z,11.07
2023-01-07T18:28:59.040Z,11.03
2023-01-07T18:34:00.548Z,11.14
2023-01-07T18:39:02.090Z,11.28
2023-01-07T18:44:03.670Z,11.24
2023-01-07T18:49:05.238Z,11.34
2023-01-07T18:54:07.014Z,10.80
2023-01-07T18:59:08.502Z,10.96
2023-01-07T19:04:10.108Z,11.22
2023-01-07T19:09:11.678Z,11.36
2023-01-07T19:14:13.251Z,11.42
2023-01-07T19:19:14.751Z,11.38
2023-01-07T19:24:16.415Z,11.42
2023-01-07T19:29:19.264Z,11.37
2023-01-07T19:34:20.841Z,11.17
2023-01-07T19:39:23.817Z,11.19
2023-01-07T19:44:25.513Z,11.08
2023-01-07T19:49:27.057Z,11.05
2023-01-07T19:54:28.542Z,11.25
2023-01-07T19:59:30.087Z,11.66
2023-01-07T20:04:31.592Z,11.72
2023-01-07T20:09:33.112Z,11.78
2023-01-07T20:14:34.633Z,11.95
2023-01-07T20:19:36.269Z,12.08
2023-01-07T20:24:37.853Z,12.62
2023-01-07T20:29:39.417Z,12.51
2023-01-07T20:34:40.971Z,12.46
2023-01-07T20:39:42.494Z,12.42
2023-01-07T20:44:43.981Z,12.43
2023-01-07T20:49:45.508Z,12.63
2023-01-07T20:54:47.485Z,12.66
2023-01-07T20:59:49.015Z,12.62
2023-01-07T21:04:50.566Z,12.56
2023-01-07T21:09:52.219Z,12.64
2023-01-07T21:14:53.917Z,12.71
2023-01-07T21:19:55.485Z,12.64
2023-01-07T21:24:56.978Z,12.66
2023-01-07T21:29:58.474Z,12.64
2023-01-07T21:34:59.970Z,12.56
2023-01-07T21:40:01.522Z,12.42
2023-01-07T21:45:04.154Z,12.62
2023-01-07T21:50:05.960Z,12.48
2023-01-07T21:55:08.581Z,12.49
2023-01-07T22:00:10.783Z,12.41
2023-01-07T22:05:15.284Z,12.43
2023-01-07T22:10:16.883Z,12.34
2023-01-07T22:15:18.439Z,12.36
2023-01-07T22:20:19.951Z,12.35
2023-01-07T22:25:21.449Z,12.33
2023-01-07T22:30:25.769Z,12.41
2023-01-07T22:35:28.892Z,12.54
2023-01-07T22:40:34.361Z,12.49
2023-01-07T22:45:42.108Z,12.45
2023-01-07T22:50:43.707Z,12.33
2023-01-07T22:55:45.271Z,12.46
2023-01-07T23:00:52.545Z,12.39
2023-01-07T23:05:54.124Z,12.37
2023-01-07T23:10:55.650Z,12.40
2023-01-07T23:16:00.930Z,12.40
2023-01-07T23:21:04.119Z,12.24
2023-01-07T23:26:05.815Z,12.27
2023-01-07T23:31:07.510Z,12.20
2023-01-07T23:36:09.674Z,12.14
2023-01-07T23:41:12.218Z,12.11
2023-01-07T23:46:13.787Z,12.18
2023-01-07T23:51:20.324Z,12.17
2023-01-07T23:56:22.058Z,11.99
